< < Back
Terminal Aerodrome Forecast


Current Version              Previous Versions:   1  2  3  4  5  6  7  8  9  

Terminal Aerodrome Forecast

821
FTUS44 KHUN 261138
TAFHSV
TAF
KHSV 261138Z 2612/2712 30005KT P6SM SKC
     FM261500 VRB03KT P6SM SCT250
     FM262100 17007G15KT P6SM SCT050 BKN120
     FM270400 31010G18KT P6SM BKN025 OVC035=



Latest METAR

832
SAUS80 KWBC 261400 RRA
MTRHSV
METAR KHSV 261353Z 29003KT 10SM FEW100 02/M02 A3016 RMK AO2 SLP214
T00171017


USA.gov is the U.S. government's official web portal to all federal, state and local government web resources and services.